createdAt,value
2019-02-06T00:00:03.126Z,88.6
2019-02-06T00:01:03.051Z,87.5
2019-02-06T00:02:03.355Z,88.9
2019-02-06T00:03:03.695Z,88.2
2019-02-06T00:04:04.948Z,88.4
2019-02-06T00:05:17.079Z,90
2019-02-06T00:06:03.165Z,89.8
2019-02-06T00:07:03.274Z,89.6
2019-02-06T00:08:03.268Z,88.9
2019-02-06T00:09:03.231Z,88.6
2019-02-06T00:10:03.217Z,89.1
2019-02-06T00:11:04.732Z,88.6
2019-02-06T00:12:03.560Z,88.6
2019-02-06T00:13:03.121Z,89.1
2019-02-06T00:14:03.346Z,89.3
2019-02-06T00:15:03.152Z,89.1
2019-02-06T00:16:04.065Z,88.4
2019-02-06T00:17:03.728Z,87
2019-02-06T00:18:04.904Z,88.4
2019-02-06T00:19:03.314Z,88.4
2019-02-06T00:20:03.257Z,88.4
2019-02-06T00:21:02.975Z,87.7
2019-02-06T00:22:03.071Z,88.6
2019-02-06T00:23:03.317Z,88.4
2019-02-06T00:24:03.532Z,87.5
2019-02-06T00:25:03.644Z,87
2019-02-06T00:26:04.268Z,86.5
2019-02-06T00:27:03.300Z,87
2019-02-06T00:28:03.595Z,86.5
2019-02-06T00:29:03.658Z,85.6
2019-02-06T00:30:03.334Z,84.7
2019-02-06T00:31:03.422Z,83.7
2019-02-06T00:32:03.132Z,83.7
2019-02-06T00:33:03.061Z,83.7
2019-02-06T00:34:04.704Z,83
2019-02-06T00:35:02.943Z,82.8
2019-02-06T00:36:03.513Z,82.8
2019-02-06T00:37:02.788Z,84
2019-02-06T00:38:06.048Z,84
2019-02-06T00:39:03.053Z,85.6
2019-02-06T00:40:03.787Z,84.4
2019-02-06T00:41:02.654Z,84.7
2019-02-06T00:42:04.746Z,85.6
2019-02-06T00:43:03.212Z,85.6
2019-02-06T00:44:03.547Z,87
2019-02-06T00:45:04.008Z,88.6
2019-02-06T00:46:03.101Z,88.4
2019-02-06T00:47:03.636Z,88.6
2019-02-06T00:48:03.744Z,89.1
2019-02-06T00:49:03.989Z,89.1
2019-02-06T00:50:03.469Z,89.1
2019-02-06T00:51:03.788Z,90.3
2019-02-06T00:52:03.399Z,89.1
2019-02-06T00:53:03.777Z,87.9
2019-02-06T00:54:04.031Z,88.2
2019-02-06T00:55:03.547Z,88.6
2019-02-06T00:56:03.866Z,88.4
2019-02-06T00:57:04.239Z,86.3
2019-02-06T00:58:03.069Z,87.2
2019-02-06T00:59:03.000Z,88.2
2019-02-06T01:00:03.851Z,87.9
2019-02-06T01:01:03.412Z,86.5
2019-02-06T01:02:03.494Z,88.9
2019-02-06T01:03:03.333Z,87
2019-02-06T01:04:02.984Z,86.1
2019-02-06T01:05:04.712Z,87
2019-02-06T01:06:03.093Z,86.5
2019-02-06T01:07:04.005Z,86.3
2019-02-06T01:08:03.445Z,86.3
2019-02-06T01:09:03.615Z,86.1
2019-02-06T01:10:02.990Z,86.5
2019-02-06T01:11:03.351Z,86.8
2019-02-06T01:12:04.327Z,84.9
2019-02-06T01:13:03.308Z,85.1
2019-02-06T01:14:03.829Z,86.8
2019-02-06T01:15:03.451Z,86.8
2019-02-06T01:16:03.574Z,90.3
2019-02-06T01:17:03.384Z,87.5
2019-02-06T01:18:03.095Z,89.8
2019-02-06T01:19:03.059Z,89.3
2019-02-06T01:20:05.146Z,90
2019-02-06T01:21:03.817Z,90
2019-02-06T01:22:02.743Z,91.2
2019-02-06T01:23:03.127Z,90
2019-02-06T01:24:03.914Z,90.5
2019-02-06T01:25:03.276Z,90.7
2019-02-06T01:26:03.212Z,91.4
2019-02-06T01:27:03.962Z,91.2
2019-02-06T01:28:03.337Z,91.7
2019-02-06T01:29:03.693Z,92.8
2019-02-06T01:30:03.642Z,94.7
2019-02-06T01:31:02.914Z,93.5
2019-02-06T01:32:03.092Z,94.5
2019-02-06T01:33:03.818Z,96.3
2019-02-06T01:34:03.703Z,95.6
2019-02-06T01:35:04.615Z,96.3
2019-02-06T01:36:02.750Z,96.3
2019-02-06T01:37:03.190Z,97.7
2019-02-06T01:38:03.137Z,96.6
2019-02-06T01:39:03.862Z,97.7
2019-02-06T01:40:04.071Z,97
2019-02-06T01:41:02.968Z,96.6
2019-02-06T01:42:04.275Z,98
2019-02-06T01:43:03.290Z,94.9
2019-02-06T01:44:03.164Z,96.6
2019-02-06T01:45:03.245Z,96.1
2019-02-06T01:46:03.598Z,95.9
2019-02-06T01:47:03.220Z,95.2
2019-02-06T01:48:03.189Z,96.1
2019-02-06T01:49:03.790Z,95.9
2019-02-06T01:50:04.349Z,95.4
2019-02-06T01:51:02.883Z,96.8
2019-02-06T01:52:03.191Z,96.3
2019-02-06T01:53:03.510Z,97.5
2019-02-06T01:54:03.728Z,95.9
2019-02-06T01:55:04.102Z,99.1
2019-02-06T01:56:03.678Z,98
2019-02-06T01:57:03.681Z,97.7
2019-02-06T01:58:03.425Z,97.3
2019-02-06T01:59:03.402Z,98.2
2019-02-06T02:00:03.156Z,97.7
2019-02-06T02:01:02.854Z,97.3
2019-02-06T02:02:04.440Z,97.5
2019-02-06T02:03:02.762Z,97.7
2019-02-06T02:04:03.498Z,97
2019-02-06T02:05:04.243Z,97.7
2019-02-06T02:06:03.141Z,98
2019-02-06T02:07:02.955Z,98.4
2019-02-06T02:08:03.027Z,97
2019-02-06T02:09:02.917Z,97.5
2019-02-06T02:10:03.940Z,96.1
2019-02-06T02:11:03.138Z,98.4
2019-02-06T02:12:03.892Z,97.3
2019-02-06T02:13:03.454Z,96.8
2019-02-06T02:14:02.871Z,97.5
2019-02-06T02:15:03.322Z,97.5
2019-02-06T02:16:02.999Z,97.3
2019-02-06T02:17:03.512Z,96.1
2019-02-06T02:18:03.032Z,95.6
2019-02-06T02:19:03.130Z,95.2
2019-02-06T02:20:04.554Z,95.2
2019-02-06T02:21:02.950Z,95.2
2019-02-06T02:22:03.385Z,95.6
2019-02-06T02:23:03.743Z,94
2019-02-06T02:24:03.025Z,95.9
2019-02-06T02:25:03.316Z,95.9
2019-02-06T02:26:03.591Z,95.2
2019-02-06T02:27:03.176Z,93.5
2019-02-06T02:28:04.620Z,92.8
2019-02-06T02:29:03.302Z,91.9
2019-02-06T02:30:03.433Z,93.5
2019-02-06T02:31:02.984Z,90
2019-02-06T02:32:03.031Z,91
2019-02-06T02:33:03.832Z,92.1
2019-02-06T02:34:03.590Z,91.2
2019-02-06T02:35:03.691Z,91.9
2019-02-06T02:36:16.899Z,91.2
2019-02-06T02:37:03.045Z,91.4
2019-02-06T02:38:03.668Z,88.4
2019-02-06T02:39:03.808Z,89.6
2019-02-06T02:40:02.996Z,90.5
2019-02-06T02:41:03.362Z,90.5
2019-02-06T02:42:02.911Z,90.3
2019-02-06T02:43:03.404Z,90
2019-02-06T02:44:03.162Z,89.3
2019-02-06T02:45:03.375Z,88.2
2019-02-06T02:46:03.065Z,86.5
2019-02-06T02:47:03.069Z,86.8
2019-02-06T02:48:03.845Z,87.7
2019-02-06T02:49:02.853Z,88.9
2019-02-06T02:50:03.728Z,88.4
2019-02-06T02:51:04.165Z,88.2
2019-02-06T02:52:03.501Z,89.1
2019-02-06T02:53:03.515Z,87.9
2019-02-06T02:54:03.238Z,88.9
2019-02-06T02:55:03.131Z,88.6
2019-02-06T02:56:04.270Z,87.9
2019-02-06T02:57:03.236Z,89.3
2019-02-06T02:58:03.458Z,89.1
2019-02-06T02:59:03.346Z,88.6
2019-02-06T03:00:03.857Z,90.3
2019-02-06T03:01:03.205Z,90.3
2019-02-06T03:02:04.039Z,88.6
2019-02-06T03:03:02.711Z,90.3
2019-02-06T03:04:03.544Z,88.9
2019-02-06T03:05:03.540Z,87.9
2019-02-06T03:06:03.391Z,87.9
2019-02-06T03:07:03.806Z,87.9
2019-02-06T03:08:02.997Z,88.2
2019-02-06T03:09:03.395Z,88.4
2019-02-06T03:10:03.000Z,87.2
2019-02-06T03:11:03.494Z,87.9
2019-02-06T03:12:03.143Z,85.8
2019-02-06T03:13:03.522Z,86.5
2019-02-06T03:14:04.500Z,86.5
2019-02-06T03:15:03.630Z,86.5
2019-02-06T03:16:03.018Z,86.8
2019-02-06T03:17:03.944Z,87.5
2019-02-06T03:18:03.788Z,87.5
2019-02-06T03:19:03.477Z,87.5
2019-02-06T03:20:03.326Z,86.8
2019-02-06T03:21:03.685Z,88.4
2019-02-06T03:22:04.368Z,86.8
2019-02-06T03:23:02.920Z,85.1
2019-02-06T03:24:03.691Z,87.9
2019-02-06T03:25:03.425Z,87.2
2019-02-06T03:26:02.889Z,88.6
2019-02-06T03:27:03.620Z,90.3
2019-02-06T03:28:03.006Z,89.8
2019-02-06T03:29:04.093Z,91
2019-02-06T03:30:03.556Z,91.4
2019-02-06T03:31:03.094Z,90.5
2019-02-06T03:32:03.862Z,90
2019-02-06T03:33:03.346Z,91.7
2019-02-06T03:34:05.405Z,90.3
2019-02-06T03:35:03.073Z,90.3
2019-02-06T03:36:03.856Z,90.3
2019-02-06T03:37:04.698Z,91.2
2019-02-06T03:38:03.482Z,88.9
2019-02-06T03:39:03.559Z,91.2
2019-02-06T03:40:03.134Z,91.9
2019-02-06T03:41:03.620Z,90.7
2019-02-06T03:42:03.718Z,91.4
2019-02-06T03:43:03.087Z,91
2019-02-06T03:44:03.819Z,92.6
2019-02-06T03:45:03.224Z,91.2
2019-02-06T03:46:03.081Z,92.4
2019-02-06T03:47:03.989Z,92.4
2019-02-06T03:48:03.228Z,92.6
2019-02-06T03:49:03.337Z,91
2019-02-06T03:50:03.072Z,91.4
2019-02-06T03:51:03.480Z,90.5
2019-02-06T03:52:04.608Z,91.4
2019-02-06T03:53:02.322Z,91.7
2019-02-06T03:54:03.770Z,90.7
2019-02-06T03:55:03.879Z,91.4
2019-02-06T03:56:03.717Z,90.5
2019-02-06T03:57:03.007Z,91
2019-02-06T03:58:03.762Z,91
2019-02-06T03:59:03.786Z,91.4
2019-02-06T04:00:04.259Z,92.4
2019-02-06T04:01:02.992Z,91.2
2019-02-06T04:02:02.651Z,91.9
2019-02-06T04:03:03.725Z,91.9
2019-02-06T04:04:03.214Z,92.4
2019-02-06T04:05:03.210Z,92.1
2019-02-06T04:06:03.518Z,93.3
2019-02-06T04:07:04.353Z,92.1
2019-02-06T04:08:03.161Z,93.8
2019-02-06T04:09:03.299Z,92.8
2019-02-06T04:10:03.113Z,92.8
2019-02-06T04:11:03.553Z,93.3
2019-02-06T04:12:03.063Z,92.6
2019-02-06T04:13:02.895Z,93.5
2019-02-06T04:14:03.223Z,93.3
2019-02-06T04:15:04.985Z,91
2019-02-06T04:16:02.816Z,91.9
2019-02-06T04:17:03.475Z,92.6
2019-02-06T04:18:02.936Z,91.4
2019-02-06T04:19:03.458Z,92.6
2019-02-06T04:20:03.232Z,92.4
2019-02-06T04:21:02.818Z,93.3
2019-02-06T04:22:02.904Z,91.7
2019-02-06T04:23:04.292Z,94.5
2019-02-06T04:24:03.353Z,94.9
2019-02-06T04:25:02.984Z,93.8
2019-02-06T04:26:03.593Z,94.7
2019-02-06T04:27:02.792Z,94.5
2019-02-06T04:28:03.678Z,93.5
2019-02-06T04:29:03.878Z,94.2
2019-02-06T04:30:03.261Z,93.1
2019-02-06T04:31:03.785Z,94.5
2019-02-06T04:32:03.100Z,93.8
2019-02-06T04:33:03.452Z,94.9
2019-02-06T04:34:03.465Z,94.2
2019-02-06T04:35:02.973Z,94.9
2019-02-06T04:36:03.522Z,94.5
2019-02-06T04:37:07.391Z,93.1
2019-02-06T04:38:04.243Z,93.3
2019-02-06T04:39:02.841Z,93.5
2019-02-06T04:40:03.037Z,93.3
2019-02-06T04:41:03.241Z,93.1
2019-02-06T04:42:03.184Z,92.8
2019-02-06T04:43:03.568Z,92.4
2019-02-06T04:44:03.089Z,93.3
2019-02-06T04:45:03.191Z,93.1
2019-02-06T04:46:04.503Z,93.1
2019-02-06T04:47:03.053Z,94
2019-02-06T04:48:03.449Z,92.6
2019-02-06T04:49:02.759Z,92.8
2019-02-06T04:50:03.449Z,92.4
2019-02-06T04:51:03.420Z,92.4
2019-02-06T04:52:03.855Z,92.4
2019-02-06T04:53:03.936Z,92.1
2019-02-06T04:54:03.073Z,89.8
2019-02-06T04:55:03.463Z,91
2019-02-06T04:56:03.087Z,88.9
2019-02-06T04:57:03.477Z,89.1
2019-02-06T04:58:03.546Z,87.9
2019-02-06T04:59:03.736Z,89.1
2019-02-06T05:00:03.655Z,88.2
2019-02-06T05:01:04.264Z,87.7
2019-02-06T05:02:03.014Z,89.1
2019-02-06T05:03:03.463Z,88.4
2019-02-06T05:04:03.171Z,89.3
2019-02-06T05:05:03.127Z,88.9
2019-02-06T05:06:03.644Z,88.9
2019-02-06T05:07:03.076Z,88.2
2019-02-06T05:08:03.513Z,89.6
2019-02-06T05:09:03.885Z,87.9
2019-02-06T05:10:03.533Z,90.7
2019-02-06T05:11:03.636Z,91
2019-02-06T05:12:03.694Z,91.2
2019-02-06T05:13:02.803Z,91.9
2019-02-06T05:14:03.169Z,91.4
2019-02-06T05:15:02.908Z,91.2
2019-02-06T05:16:04.260Z,91.4
2019-02-06T05:17:02.974Z,91.4
2019-02-06T05:18:03.513Z,90.7
2019-02-06T05:19:02.898Z,91.4
2019-02-06T05:20:03.485Z,91.4
2019-02-06T05:21:03.799Z,91.2
2019-02-06T05:22:03.804Z,92.1
2019-02-06T05:23:03.320Z,91.7
2019-02-06T05:24:04.977Z,91.7
2019-02-06T05:25:03.860Z,89.3
2019-02-06T05:26:03.642Z,89.3
2019-02-06T05:27:03.767Z,89.8
2019-02-06T05:28:03.320Z,90.5
2019-02-06T05:29:03.049Z,90.3
2019-02-06T05:30:03.562Z,90.3
2019-02-06T05:31:04.507Z,89.3
2019-02-06T05:32:02.628Z,89.3
2019-02-06T05:33:03.696Z,90.3
2019-02-06T05:34:04.173Z,89.6
2019-02-06T05:35:03.719Z,91
2019-02-06T05:36:03.249Z,90.3
2019-02-06T05:37:03.198Z,89.6
2019-02-06T05:38:03.005Z,92.1
2019-02-06T05:39:04.727Z,91.2
2019-02-06T05:40:03.344Z,92.4
2019-02-06T05:41:03.356Z,92.4
2019-02-06T05:42:03.780Z,93.3
2019-02-06T05:43:03.877Z,92.8
2019-02-06T05:44:03.860Z,91.7
2019-02-06T05:45:02.936Z,92.8
2019-02-06T05:46:04.283Z,92.8
2019-02-06T05:47:03.779Z,91.4
2019-02-06T05:48:03.856Z,91.4
2019-02-06T05:49:03.536Z,92.8
2019-02-06T05:50:03.132Z,91.4
2019-02-06T05:51:03.205Z,90.5
2019-02-06T05:52:03.138Z,92.1
2019-02-06T05:53:02.839Z,90.7
2019-02-06T05:54:03.042Z,91.4
2019-02-06T05:55:05.379Z,93.3
2019-02-06T05:56:03.506Z,92.1
2019-02-06T05:57:02.794Z,94.7
2019-02-06T05:58:03.341Z,94
2019-02-06T05:59:03.844Z,92.8
2019-02-06T06:00:03.683Z,94
2019-02-06T06:01:04.543Z,93.8
2019-02-06T06:02:03.333Z,94.2
2019-02-06T06:03:03.308Z,92.1
2019-02-06T06:04:03.218Z,92.6
2019-02-06T06:05:03.231Z,92.4
2019-02-06T06:06:03.456Z,92.8
2019-02-06T06:07:03.598Z,92.6
2019-02-06T06:08:02.990Z,94.9
2019-02-06T06:09:03.277Z,91.4
2019-02-06T06:10:03.734Z,94
2019-02-06T06:11:03.260Z,91.7
2019-02-06T06:12:03.459Z,93.1
2019-02-06T06:13:03.797Z,91.7
2019-02-06T06:14:03.371Z,91.7
2019-02-06T06:15:03.621Z,91.7
2019-02-06T06:16:04.928Z,92.6
2019-02-06T06:17:03.628Z,91.4
2019-02-06T06:18:03.419Z,91.2
2019-02-06T06:19:03.706Z,90.7
2019-02-06T06:20:03.668Z,88.6
2019-02-06T06:21:03.728Z,88.6
2019-02-06T06:22:03.693Z,87.5
2019-02-06T06:23:03.552Z,86.5
2019-02-06T06:24:02.959Z,86.5
2019-02-06T06:25:03.406Z,86.1
2019-02-06T06:26:03.470Z,84.2
2019-02-06T06:27:03.970Z,84.7
2019-02-06T06:28:03.334Z,82.6
2019-02-06T06:29:03.095Z,84.7
2019-02-06T06:30:03.730Z,82.6
2019-02-06T06:31:04.670Z,84.4
2019-02-06T06:32:03.148Z,84.4
2019-02-06T06:33:03.239Z,83.7
2019-02-06T06:34:03.245Z,84.2
2019-02-06T06:35:03.402Z,83.3
2019-02-06T06:36:03.178Z,82.1
2019-02-06T06:37:03.797Z,84
2019-02-06T06:38:03.392Z,82.6
2019-02-06T06:39:03.554Z,83.5
2019-02-06T06:40:03.604Z,82.3
2019-02-06T06:41:03.459Z,82.3
2019-02-06T06:42:03.243Z,83.7
2019-02-06T06:43:03.905Z,82.8
2019-02-06T06:44:03.714Z,82.8
2019-02-06T06:45:02.994Z,81.6
2019-02-06T06:46:04.361Z,82.3
2019-02-06T06:47:03.218Z,81.6
2019-02-06T06:48:03.650Z,82.6
2019-02-06T06:49:03.382Z,82.3
2019-02-06T06:50:02.870Z,84
2019-02-06T06:51:03.864Z,83.3
2019-02-06T06:52:04.341Z,84.2
2019-02-06T06:53:02.984Z,83
2019-02-06T06:54:04.442Z,81.4
2019-02-06T06:55:03.348Z,82.3
2019-02-06T06:56:03.677Z,80.7
2019-02-06T06:57:03.268Z,82.1
2019-02-06T06:58:03.046Z,81.9
2019-02-06T06:59:03.489Z,80.7
2019-02-06T07:00:03.352Z,81.2
2019-02-06T07:01:03.239Z,81.9
2019-02-06T07:02:03.123Z,80
2019-02-06T07:03:03.437Z,80.2
2019-02-06T07:04:03.242Z,80
2019-02-06T07:05:06.005Z,82.3
2019-02-06T07:06:03.825Z,79.8
2019-02-06T07:07:02.869Z,79.8
2019-02-06T07:08:13.799Z,80.2
2019-02-06T07:09:04.445Z,78.6
2019-02-06T07:10:03.758Z,78.6
2019-02-06T07:11:03.068Z,78.1
2019-02-06T07:12:03.828Z,79.1
2019-02-06T07:13:03.743Z,78.6
2019-02-06T07:14:03.266Z,80
2019-02-06T07:15:02.802Z,78.8
2019-02-06T07:16:02.883Z,79.5
2019-02-06T07:17:04.166Z,80.5
2019-02-06T07:18:03.210Z,79.1
2019-02-06T07:19:03.532Z,80.5
2019-02-06T07:20:03.402Z,80
2019-02-06T07:21:03.023Z,81.4
2019-02-06T07:22:03.783Z,81.4
2019-02-06T07:23:03.765Z,80.9
2019-02-06T07:24:03.588Z,82.6
2019-02-06T07:25:03.322Z,82.1
2019-02-06T07:26:02.810Z,83.3
2019-02-06T07:27:03.587Z,83.7
2019-02-06T07:28:03.302Z,86.1
2019-02-06T07:29:02.957Z,86.8
2019-02-06T07:30:03.406Z,86.1
2019-02-06T07:31:03.021Z,86.5
2019-02-06T07:32:04.477Z,87
2019-02-06T07:33:03.538Z,85.6
2019-02-06T07:34:03.429Z,86.3
2019-02-06T07:35:03.620Z,85.6
2019-02-06T07:36:03.068Z,86.1
2019-02-06T07:37:03.427Z,85.4
2019-02-06T07:38:03.359Z,85.6
2019-02-06T07:39:02.602Z,84.9
2019-02-06T07:40:05.024Z,83.3
2019-02-06T07:41:03.184Z,84.2
2019-02-06T07:42:03.235Z,85.8
2019-02-06T07:43:03.108Z,84.7
2019-02-06T07:44:03.129Z,87
2019-02-06T07:45:03.092Z,85.4
2019-02-06T07:46:03.735Z,85.8
2019-02-06T07:47:03.916Z,87.9
2019-02-06T07:48:03.166Z,86.1
2019-02-06T07:49:03.042Z,86.5
2019-02-06T07:50:03.756Z,86.3
2019-02-06T07:51:02.956Z,87
2019-02-06T07:52:03.300Z,87.2
2019-02-06T07:53:02.795Z,86.5
2019-02-06T07:54:03.357Z,87.9
2019-02-06T07:55:04.344Z,88.6
2019-02-06T07:56:03.160Z,88.6
2019-02-06T07:57:03.683Z,87.2
2019-02-06T07:58:03.209Z,88.4
2019-02-06T07:59:02.748Z,87.5
2019-02-06T08:00:03.498Z,87.2
2019-02-06T08:01:03.392Z,88.9
2019-02-06T08:02:03.904Z,87.7
2019-02-06T08:03:02.810Z,88.4
2019-02-06T08:04:03.268Z,89.6
2019-02-06T08:05:03.079Z,90
2019-02-06T08:06:03.049Z,88.2
2019-02-06T08:07:03.578Z,88.6
2019-02-06T08:08:03.654Z,88.9
2019-02-06T08:09:03.277Z,89.3
2019-02-06T08:10:04.528Z,88.9
2019-02-06T08:11:03.463Z,88.9
2019-02-06T08:12:03.354Z,89.8
2019-02-06T08:13:03.337Z,88.6
2019-02-06T08:14:02.859Z,89.6
2019-02-06T08:15:03.353Z,88.9
2019-02-06T08:16:03.233Z,88.6
2019-02-06T08:17:02.900Z,89.6
2019-02-06T08:18:03.466Z,90.5
2019-02-06T08:19:03.497Z,89.1
2019-02-06T08:20:03.079Z,91.7
2019-02-06T08:21:03.143Z,92.1
2019-02-06T08:22:03.323Z,90.5
2019-02-06T08:23:03.452Z,91.2
2019-02-06T08:24:03.997Z,91.2
2019-02-06T08:25:04.608Z,91.7
2019-02-06T08:26:03.518Z,92.4
2019-02-06T08:27:03.502Z,91.2
2019-02-06T08:28:03.474Z,92.8
2019-02-06T08:29:03.268Z,91.2
2019-02-06T08:30:03.461Z,90
2019-02-06T08:31:03.799Z,91.9
2019-02-06T08:32:03.349Z,90
2019-02-06T08:33:04.729Z,91.2
2019-02-06T08:34:03.331Z,91
2019-02-06T08:35:02.975Z,91
2019-02-06T08:36:03.441Z,91.7
2019-02-06T08:37:03.247Z,89.8
2019-02-06T08:38:03.861Z,91.9
2019-02-06T08:39:02.777Z,89.6
2019-02-06T08:40:03.512Z,90
2019-02-06T08:41:04.631Z,90.5
2019-02-06T08:42:03.738Z,90.7
2019-02-06T08:43:02.871Z,90
2019-02-06T08:45:27.569Z,90
2019-02-06T08:45:27.577Z,90
2019-02-06T08:46:03.831Z,90
2019-02-06T08:47:03.712Z,89.1
2019-02-06T08:48:04.178Z,89.1
2019-02-06T08:49:03.458Z,88.9
2019-02-06T08:50:03.586Z,88.4
2019-02-06T08:51:03.631Z,87.9
2019-02-06T08:52:02.678Z,86.8
2019-02-06T08:53:03.483Z,86.8
2019-02-06T08:54:03.208Z,86.1
2019-02-06T08:55:03.022Z,88.4
2019-02-06T08:56:04.861Z,86.3
2019-02-06T08:57:03.673Z,89.6
2019-02-06T08:58:03.547Z,87
2019-02-06T08:59:02.922Z,90.5
2019-02-06T09:00:03.288Z,90
2019-02-06T09:01:03.286Z,91.2
2019-02-06T09:02:03.512Z,91
2019-02-06T09:03:03.149Z,90.3
2019-02-06T09:04:03.475Z,91
2019-02-06T09:05:03.622Z,90.3
2019-02-06T09:06:03.256Z,90.3
2019-02-06T09:07:03.665Z,89.6
2019-02-06T09:08:03.270Z,91.2
2019-02-06T09:09:03.441Z,90.3
2019-02-06T09:10:03.437Z,89.6
2019-02-06T09:11:04.299Z,90.3
2019-02-06T09:12:03.671Z,89.1
2019-02-06T09:13:03.540Z,88.9
2019-02-06T09:14:03.834Z,89.1
2019-02-06T09:15:03.325Z,89.8
2019-02-06T09:16:03.549Z,87.9
2019-02-06T09:17:03.294Z,89.8
2019-02-06T09:18:03.795Z,88.4
2019-02-06T09:19:04.584Z,88.6
2019-02-06T09:20:03.393Z,87.5
2019-02-06T09:21:03.392Z,89.3
2019-02-06T09:22:03.693Z,89.3
2019-02-06T09:23:02.889Z,88.4
2019-02-06T09:24:03.605Z,89.1
2019-02-06T09:25:03.064Z,88.2
2019-02-06T09:26:03.735Z,89.3
2019-02-06T09:27:03.875Z,86.8
2019-02-06T09:28:02.944Z,87
2019-02-06T09:29:02.186Z,87
2019-02-06T09:30:03.535Z,84.4
2019-02-06T09:31:03.447Z,87.5
2019-02-06T09:32:03.820Z,86.1
2019-02-06T09:33:03.756Z,86.1
2019-02-06T09:34:04.227Z,86.8
2019-02-06T09:35:03.213Z,85.6
2019-02-06T09:36:03.668Z,87
2019-02-06T09:37:05.514Z,85.8
2019-02-06T09:38:03.848Z,87
2019-02-06T09:39:12.415Z,86.8
2019-02-06T09:40:03.243Z,86.8
2019-02-06T09:41:03.248Z,87
2019-02-06T09:42:03.279Z,86.1
2019-02-06T09:43:03.067Z,87
2019-02-06T09:44:03.823Z,85.1
2019-02-06T09:45:04.005Z,86.3
2019-02-06T09:46:02.922Z,87
2019-02-06T09:47:03.692Z,86.1
2019-02-06T09:48:03.338Z,86.8
2019-02-06T09:49:04.745Z,87.5
2019-02-06T09:50:03.775Z,87.5
2019-02-06T09:51:03.056Z,87.2
2019-02-06T09:52:03.577Z,87.7
2019-02-06T09:53:03.013Z,88.6
2019-02-06T09:54:03.574Z,87.5
2019-02-06T09:55:03.447Z,88.2
2019-02-06T09:56:03.382Z,87
2019-02-06T09:57:04.581Z,86.8
2019-02-06T09:58:03.476Z,84.2
2019-02-06T09:59:03.875Z,83.7
2019-02-06T10:00:03.499Z,85.1
2019-02-06T10:01:02.945Z,84.4
2019-02-06T10:02:02.898Z,84
2019-02-06T10:03:03.183Z,86.8
2019-02-06T10:04:04.169Z,84.2
2019-02-06T10:05:03.644Z,86.8
2019-02-06T10:06:03.524Z,86.3
2019-02-06T10:07:03.378Z,84.7
2019-02-06T10:08:03.431Z,87.2
2019-02-06T10:09:03.035Z,86.3
2019-02-06T10:10:03.092Z,87.2
2019-02-06T10:11:03.489Z,87.9
2019-02-06T10:12:04.768Z,86.8
2019-02-06T10:13:03.134Z,86.5
2019-02-06T10:14:03.050Z,86.5
2019-02-06T10:15:03.621Z,86.5
2019-02-06T10:16:03.338Z,84.4
2019-02-06T10:17:02.932Z,85.1
2019-02-06T10:18:03.688Z,85.6
2019-02-06T10:19:03.787Z,85.8
2019-02-06T10:20:02.988Z,85.8
2019-02-06T10:21:03.012Z,87.2
2019-02-06T10:22:02.967Z,85.8
2019-02-06T10:23:03.187Z,87.9
2019-02-06T10:24:03.913Z,87.7
2019-02-06T10:25:03.374Z,89.1
2019-02-06T10:26:03.425Z,89.6
2019-02-06T10:27:04.153Z,88.9
2019-02-06T10:28:03.295Z,91.9
2019-02-06T10:29:02.874Z,90.7
2019-02-06T10:30:04.308Z,90.7
2019-02-06T10:31:03.800Z,90.5
2019-02-06T10:32:03.693Z,91.2
2019-02-06T10:33:03.162Z,90.7
2019-02-06T10:34:03.775Z,92.1
2019-02-06T10:35:04.583Z,91.7
2019-02-06T10:36:03.644Z,92.1
2019-02-06T10:37:03.685Z,91.7
2019-02-06T10:38:03.004Z,91.4
2019-02-06T10:39:03.684Z,93.3
2019-02-06T10:40:03.989Z,92.6
2019-02-06T10:41:04.960Z,93.1
2019-02-06T10:42:03.928Z,94.2
2019-02-06T10:43:03.615Z,92.6
2019-02-06T10:44:03.365Z,92.6
2019-02-06T10:45:03.714Z,92.8
2019-02-06T10:46:03.199Z,92.4
2019-02-06T10:47:03.356Z,93.1
2019-02-06T10:48:03.505Z,93.1
2019-02-06T10:49:03.729Z,93.1
2019-02-06T10:50:04.609Z,91.4
2019-02-06T10:51:03.785Z,92.4
2019-02-06T10:52:03.004Z,92.4
2019-02-06T10:53:03.666Z,93.8
2019-02-06T10:54:03.128Z,93.3
2019-02-06T10:55:03.425Z,93.5
2019-02-06T10:56:03.743Z,94.2
2019-02-06T10:57:03.369Z,94
2019-02-06T10:58:03.117Z,94.2
2019-02-06T10:59:03.609Z,94
2019-02-06T11:00:03.424Z,95.6
2019-02-06T11:01:02.929Z,93.1
2019-02-06T11:02:02.904Z,92.6
2019-02-06T11:03:02.943Z,93.5
2019-02-06T11:04:02.923Z,90.5
2019-02-06T11:05:04.177Z,92.8
2019-02-06T11:06:03.566Z,91.7
2019-02-06T11:07:03.257Z,91.2
2019-02-06T11:08:03.356Z,91.9
2019-02-06T11:09:03.205Z,91.4
2019-02-06T11:10:03.031Z,91
2019-02-06T11:11:03.877Z,90.7
2019-02-06T11:12:02.961Z,90
2019-02-06T11:13:04.939Z,91.4
2019-02-06T11:14:03.396Z,91.2
2019-02-06T11:15:03.391Z,92.8
2019-02-06T11:16:03.603Z,91.7
2019-02-06T11:17:03.802Z,92.6
2019-02-06T11:18:03.117Z,92.1
2019-02-06T11:19:03.266Z,93.5
2019-02-06T11:20:04.259Z,92.4
2019-02-06T11:21:03.099Z,92.4
2019-02-06T11:22:03.559Z,91.2
2019-02-06T11:23:02.955Z,91.2
2019-02-06T11:24:03.321Z,92.1
2019-02-06T11:25:04.927Z,90
2019-02-06T11:26:02.880Z,90.5
2019-02-06T11:27:03.511Z,89.3
2019-02-06T11:28:04.679Z,89.6
2019-02-06T11:29:03.074Z,89.1
2019-02-06T11:30:03.538Z,87.9
2019-02-06T11:31:03.474Z,89.8
2019-02-06T11:32:03.196Z,89.6
2019-02-06T11:33:03.675Z,89.8
2019-02-06T11:34:02.893Z,91.2
2019-02-06T11:35:03.771Z,89.1
2019-02-06T11:36:04.561Z,91.2
2019-02-06T11:37:03.014Z,90.3
2019-02-06T11:38:03.237Z,89.6
2019-02-06T11:39:03.194Z,90.3
2019-02-06T11:40:03.588Z,90.3
2019-02-06T11:41:03.322Z,90.7
2019-02-06T11:42:03.222Z,91.7
2019-02-06T11:43:03.374Z,91
2019-02-06T11:44:02.807Z,91
2019-02-06T11:45:03.099Z,89.8
2019-02-06T11:46:03.702Z,89.8
2019-02-06T11:47:03.143Z,90
2019-02-06T11:48:03.434Z,91.4
2019-02-06T11:49:03.458Z,91
2019-02-06T11:50:02.919Z,91.2
2019-02-06T11:51:04.265Z,91.2
2019-02-06T11:52:02.866Z,91.9
2019-02-06T11:53:03.650Z,92.8
2019-02-06T11:54:03.508Z,92.4
2019-02-06T11:55:03.386Z,92.8
2019-02-06T11:56:03.571Z,91.7
2019-02-06T11:57:03.053Z,91.4
2019-02-06T11:58:03.281Z,90.7
2019-02-06T11:59:04.448Z,90.3
2019-02-06T12:00:03.547Z,90.7
2019-02-06T12:01:03.804Z,89.1
2019-02-06T12:02:03.188Z,90.5
2019-02-06T12:03:03.433Z,90.3
2019-02-06T12:04:03.838Z,91
2019-02-06T12:05:03.107Z,89.8
2019-02-06T12:06:04.015Z,91.9
2019-02-06T12:07:03.486Z,91.2
2019-02-06T12:08:03.688Z,91.7
2019-02-06T12:09:03.413Z,91
2019-02-06T12:10:10.524Z,90.5
2019-02-06T12:11:02.958Z,91
2019-02-06T12:12:03.656Z,91.2
2019-02-06T12:13:03.585Z,92.6
2019-02-06T12:14:04.268Z,92.4
2019-02-06T12:15:03.176Z,91.7
2019-02-06T12:16:03.819Z,92.8
2019-02-06T12:17:03.829Z,91.2
2019-02-06T12:18:02.942Z,92.4
2019-02-06T12:19:03.232Z,91.4
2019-02-06T12:20:03.467Z,89.3
2019-02-06T12:21:04.022Z,90.5
2019-02-06T12:22:03.095Z,90.5
2019-02-06T12:23:03.167Z,88.9
2019-02-06T12:24:02.893Z,89.6
2019-02-06T12:25:03.813Z,89.6
2019-02-06T12:26:03.482Z,87.5
2019-02-06T12:27:03.043Z,87
2019-02-06T12:28:05.519Z,86.8
2019-02-06T12:29:04.070Z,86.3
2019-02-06T12:30:03.233Z,85.8
2019-02-06T12:31:03.719Z,86.5
2019-02-06T12:32:03.234Z,85.8
2019-02-06T12:33:02.932Z,85.1
2019-02-06T12:34:03.395Z,87
2019-02-06T12:35:03.200Z,85.8
2019-02-06T12:36:04.092Z,88.4
2019-02-06T12:37:03.053Z,87.5
2019-02-06T12:38:03.045Z,87.2
2019-02-06T12:39:03.300Z,88.6
2019-02-06T12:40:03.140Z,88.2
2019-02-06T12:41:03.254Z,88.2
2019-02-06T12:42:02.857Z,87.5
2019-02-06T12:43:04.562Z,86.8
2019-02-06T12:44:03.288Z,86.8
2019-02-06T12:45:02.811Z,86.8
2019-02-06T12:46:03.248Z,85.8
2019-02-06T12:47:03.598Z,87
2019-02-06T12:48:03.090Z,86.5
2019-02-06T12:49:03.063Z,87.7
2019-02-06T12:50:04.284Z,87
2019-02-06T12:51:03.283Z,87
2019-02-06T12:52:03.551Z,86.5
2019-02-06T12:53:02.874Z,86.3
2019-02-06T12:54:03.004Z,84.9
2019-02-06T12:55:02.878Z,86.3
2019-02-06T12:56:03.084Z,84.9
2019-02-06T12:57:03.061Z,86.5
2019-02-06T12:58:05.117Z,86.5
2019-02-06T12:59:03.065Z,88.2
2019-02-06T13:00:02.847Z,89.1
2019-02-06T13:01:03.550Z,88.9
2019-02-06T13:02:03.643Z,90.7
2019-02-06T13:03:03.417Z,89.6
2019-02-06T13:04:03.259Z,90.5
2019-02-06T13:05:04.675Z,88.4
2019-02-06T13:06:03.367Z,88.9
2019-02-06T13:07:03.401Z,89.3
2019-02-06T13:08:03.563Z,88.2
2019-02-06T13:09:03.301Z,90
2019-02-06T13:10:03.684Z,88.4
2019-02-06T13:11:03.036Z,91
2019-02-06T13:12:03.146Z,91.2
2019-02-06T13:13:04.575Z,92.8
2019-02-06T13:14:03.728Z,90.5
2019-02-06T13:15:03.683Z,92.6
2019-02-06T13:16:03.363Z,91.9
2019-02-06T13:17:03.409Z,93.3
2019-02-06T13:18:03.441Z,93.1
2019-02-06T13:19:03.011Z,93.8
2019-02-06T13:20:03.517Z,93.1
2019-02-06T13:21:02.799Z,93.5
2019-02-06T13:22:03.205Z,93.8
2019-02-06T13:23:02.858Z,92.6
2019-02-06T13:24:03.336Z,93.8